createdAt,value
2022-10-07T00:04:02.715Z,73.00
2022-10-07T00:08:05.730Z,73.44
2022-10-07T00:12:11.533Z,74.17
2022-10-07T00:16:17.526Z,74.77
2022-10-07T00:20:21.369Z,74.54
2022-10-07T00:24:24.363Z,74.83
2022-10-07T00:28:29.583Z,74.54
2022-10-07T00:32:32.635Z,74.92
2022-10-07T00:36:38.001Z,75.29
2022-10-07T00:40:41.637Z,74.89
2022-10-07T00:44:48.030Z,74.36
2022-10-07T00:48:51.405Z,74.54
2022-10-07T00:52:58.449Z,74.57
2022-10-07T00:57:01.704Z,74.56
2022-10-07T01:01:07.124Z,74.17
2022-10-07T01:05:14.369Z,74.69
2022-10-07T01:09:18.125Z,74.32
2022-10-07T01:17:33.850Z,74.15
2022-10-07T01:21:44.529Z,74.34
2022-10-07T01:26:19.775Z,73.72
2022-10-07T01:30:24.346Z,74.38
2022-10-07T01:34:28.407Z,74.41
2022-10-07T01:38:33.918Z,74.47
2022-10-07T01:42:38.011Z,74.43
2022-10-07T01:46:44.872Z,74.30
2022-10-07T01:50:50.505Z,74.20
2022-10-07T01:55:16.826Z,73.96
2022-10-07T01:59:35.123Z,73.85
2022-10-07T02:03:59.229Z,73.61
2022-10-07T02:08:14.281Z,73.31
2022-10-07T02:12:25.363Z,73.80
2022-10-07T02:16:34.636Z,73.76
2022-10-07T02:20:42.157Z,73.81
2022-10-07T02:24:47.757Z,73.78
2022-10-07T02:28:55.030Z,73.62
2022-10-07T02:33:03.975Z,73.90
2022-10-07T02:37:17.288Z,73.79
2022-10-07T02:41:34.446Z,73.80
2022-10-07T02:45:46.760Z,73.68
2022-10-07T02:49:53.393Z,73.53
2022-10-07T02:54:01.229Z,73.10
2022-10-07T02:58:07.639Z,73.48
2022-10-07T03:02:19.459Z,73.74
2022-10-07T03:06:25.274Z,73.82
2022-10-07T03:10:30.428Z,74.12
2022-10-07T03:14:35.856Z,74.20
2022-10-07T03:18:39.687Z,74.23
2022-10-07T03:22:43.781Z,74.63
2022-10-07T03:26:48.975Z,74.60
2022-10-07T03:30:52.742Z,74.42
2022-10-07T03:34:56.692Z,74.31
2022-10-07T03:38:59.794Z,74.02
2022-10-07T03:43:05.175Z,74.47
2022-10-07T03:47:10.665Z,75.05
2022-10-07T03:51:14.516Z,75.24
2022-10-07T03:55:17.800Z,75.34
2022-10-07T03:59:23.201Z,75.17
2022-10-07T04:03:26.417Z,75.42
2022-10-07T04:07:30.066Z,75.08
2022-10-07T04:11:33.297Z,75.03
2022-10-07T04:15:40.821Z,74.99
2022-10-07T04:19:44.024Z,74.81
2022-10-07T04:23:46.972Z,74.47
2022-10-07T04:27:54.391Z,74.50
2022-10-07T04:31:58.899Z,74.33
2022-10-07T04:36:06.253Z,74.19
2022-10-07T04:40:10.457Z,73.99
2022-10-07T04:44:14.008Z,73.84
2022-10-07T04:48:20.437Z,73.91
2022-10-07T04:52:23.948Z,73.66
2022-10-07T04:56:28.536Z,73.69
2022-10-07T05:00:32.413Z,73.63
2022-10-07T05:04:37.230Z,73.74
2022-10-07T05:08:43.893Z,73.62
2022-10-07T05:12:46.934Z,73.34
2022-10-07T05:16:50.248Z,73.64
2022-10-07T05:20:55.451Z,73.57
2022-10-07T05:24:59.412Z,73.51
2022-10-07T05:29:02.502Z,73.46
2022-10-07T05:33:06.096Z,73.41
2022-10-07T05:37:11.048Z,73.14
2022-10-07T05:41:14.304Z,72.97
2022-10-07T05:45:18.446Z,73.10
2022-10-07T05:49:22.085Z,72.85
2022-10-07T05:53:26.961Z,72.85
2022-10-07T05:57:30.579Z,72.86
2022-10-07T06:01:34.572Z,73.00
2022-10-07T06:05:37.633Z,73.19
2022-10-07T06:09:59.710Z,72.71
2022-10-07T06:14:03.171Z,73.16
2022-10-07T06:18:06.620Z,72.95
2022-10-07T06:22:09.728Z,72.93
2022-10-07T06:26:15.043Z,72.50
2022-10-07T06:30:18.192Z,72.42
2022-10-07T06:34:21.812Z,72.21
2022-10-07T06:38:25.294Z,72.27
2022-10-07T06:42:29.696Z,72.15
2022-10-07T06:46:33.146Z,72.59
2022-10-07T06:50:36.241Z,72.39
2022-10-07T06:54:39.753Z,72.54
2022-10-07T06:58:44.599Z,72.61
2022-10-07T07:02:48.225Z,72.53
2022-10-07T07:06:52.110Z,72.72
2022-10-07T07:10:55.407Z,72.49
2022-10-07T07:15:00.872Z,72.65
2022-10-07T07:19:07.406Z,72.71
2022-10-07T07:23:11.559Z,72.41
2022-10-07T07:27:15.397Z,72.45
2022-10-07T07:31:19.817Z,72.46
2022-10-07T07:35:23.016Z,72.10
2022-10-07T07:39:26.633Z,72.11
2022-10-07T07:43:29.898Z,71.82
2022-10-07T07:47:36.171Z,71.61
2022-10-07T07:51:39.718Z,71.02
2022-10-07T07:55:53.518Z,70.60
2022-10-07T07:59:57.250Z,70.95
2022-10-07T08:04:02.941Z,70.75
2022-10-07T08:08:05.951Z,70.77
2022-10-07T08:12:09.856Z,69.89
2022-10-07T08:16:15.212Z,70.24
2022-10-07T08:20:19.912Z,69.50
2022-10-07T08:24:25.553Z,69.78
2022-10-07T08:28:29.280Z,68.90
2022-10-07T08:32:32.824Z,69.43
2022-10-07T08:36:37.689Z,69.21
2022-10-07T08:40:48.878Z,69.42
2022-10-07T08:44:53.078Z,68.33
2022-10-07T08:49:00.390Z,68.32
2022-10-07T08:53:09.074Z,67.77
2022-10-07T08:57:20.551Z,67.75
2022-10-07T09:01:37.838Z,66.93
2022-10-07T09:05:45.863Z,67.66
2022-10-07T09:09:56.547Z,68.47
2022-10-07T09:14:03.870Z,67.18
2022-10-07T09:18:18.189Z,67.32
2022-10-07T09:22:23.849Z,66.47
2022-10-07T09:26:33.601Z,67.00
2022-10-07T09:30:37.128Z,65.02
2022-10-07T09:34:42.584Z,65.50
2022-10-07T09:38:48.434Z,65.75
2022-10-07T09:42:52.903Z,64.87
2022-10-07T09:47:00.230Z,65.14
2022-10-07T09:51:18.070Z,65.25
2022-10-07T09:55:37.859Z,63.98
2022-10-07T09:59:42.356Z,63.63
2022-10-07T10:03:45.946Z,63.93
2022-10-07T10:07:56.228Z,62.74
2022-10-07T10:12:14.889Z,64.18
2022-10-07T10:16:36.782Z,64.02
2022-10-07T10:20:44.106Z,63.24
2022-10-07T10:25:04.828Z,60.12
2022-10-07T10:29:18.850Z,58.74
2022-10-07T10:33:37.761Z,60.72
2022-10-07T10:38:00.106Z,60.92
2022-10-07T10:42:09.673Z,60.78
2022-10-07T10:46:32.938Z,59.52
2022-10-07T10:50:51.561Z,59.71
2022-10-07T10:55:45.839Z,61.06
2022-10-07T11:00:05.446Z,60.06
2022-10-07T11:04:39.619Z,61.31
2022-10-07T11:08:45.360Z,59.86
2022-10-07T11:12:54.819Z,61.20
2022-10-07T11:17:04.006Z,59.22
2022-10-07T11:21:13.246Z,59.42
2022-10-07T11:25:28.545Z,59.50
2022-10-07T11:29:42.019Z,59.91
2022-10-07T11:33:52.024Z,59.37
2022-10-07T11:38:02.016Z,60.24
2022-10-07T11:42:14.672Z,60.19
2022-10-07T11:46:22.260Z,58.19
2022-10-07T11:50:31.888Z,57.85
2022-10-07T11:54:43.471Z,59.97
2022-10-07T11:58:57.783Z,59.96
2022-10-07T12:03:14.641Z,60.43
2022-10-07T12:07:52.335Z,61.53
2022-10-07T12:11:58.051Z,58.58
2022-10-07T12:16:44.317Z,59.86
2022-10-07T12:20:58.829Z,59.52
2022-10-07T12:25:32.792Z,60.19
2022-10-07T12:29:50.370Z,59.65
2022-10-07T12:34:01.869Z,59.79
2022-10-07T12:38:06.216Z,59.22
2022-10-07T12:42:14.495Z,59.46
2022-10-07T12:46:21.146Z,60.21
2022-10-07T12:50:29.029Z,59.86
2022-10-07T12:54:37.945Z,60.65
2022-10-07T12:59:26.805Z,60.44
2022-10-07T13:04:14.461Z,61.56
2022-10-07T13:08:51.402Z,60.56
2022-10-07T13:12:56.915Z,60.79
2022-10-07T13:17:05.574Z,61.06
2022-10-07T13:21:17.407Z,59.72
2022-10-07T13:25:23.810Z,58.78
2022-10-07T13:29:31.517Z,58.26
2022-10-07T13:33:34.902Z,59.40
2022-10-07T13:37:39.954Z,60.22
2022-10-07T13:41:48.148Z,60.13
2022-10-07T13:45:51.206Z,59.63
2022-10-07T13:49:55.953Z,58.88
2022-10-07T13:54:01.505Z,58.05
2022-10-07T13:58:07.676Z,59.38
2022-10-07T14:02:16.019Z,59.94
2022-10-07T14:06:38.237Z,60.53
2022-10-07T14:10:52.543Z,59.87
2022-10-07T14:15:03.870Z,60.33
2022-10-07T14:19:07.279Z,59.86
2022-10-07T14:23:24.072Z,60.24
2022-10-07T14:27:42.634Z,59.62
2022-10-07T14:32:19.034Z,60.04
2022-10-07T14:36:24.189Z,60.79
2022-10-07T14:40:27.176Z,60.75
2022-10-07T14:44:31.276Z,61.16
2022-10-07T14:48:36.563Z,61.42
2022-10-07T14:52:45.078Z,61.79
2022-10-07T14:56:48.688Z,61.85
2022-10-07T15:00:53.253Z,62.29
2022-10-07T15:04:58.325Z,61.44
2022-10-07T15:09:01.775Z,62.25
2022-10-07T15:13:11.060Z,62.18
2022-10-07T15:17:16.272Z,62.65
2022-10-07T15:21:21.038Z,61.88
2022-10-07T15:25:24.577Z,61.93
2022-10-07T15:29:28.340Z,62.33
2022-10-07T15:33:31.609Z,62.93
2022-10-07T15:37:36.103Z,63.47
2022-10-07T15:41:41.101Z,63.56
2022-10-07T15:45:47.069Z,63.91
2022-10-07T15:49:50.307Z,64.37
2022-10-07T15:53:55.379Z,64.18
2022-10-07T15:57:59.565Z,64.58
2022-10-07T16:02:03.932Z,65.03
2022-10-07T16:06:10.353Z,65.38
2022-10-07T16:10:15.350Z,65.38
2022-10-07T16:14:19.026Z,65.47
2022-10-07T16:18:22.024Z,65.59
2022-10-07T16:22:25.958Z,65.89
2022-10-07T16:26:31.972Z,66.05
2022-10-07T16:30:45.410Z,66.08
2022-10-07T16:34:48.927Z,66.25
2022-10-07T16:38:53.438Z,66.90
2022-10-07T16:43:00.272Z,67.11
2022-10-07T16:47:03.869Z,67.44
2022-10-07T16:51:09.856Z,67.77
2022-10-07T16:55:14.065Z,67.76
2022-10-07T16:59:23.193Z,67.98
2022-10-07T17:03:27.154Z,68.00
2022-10-07T17:07:30.797Z,67.98
2022-10-07T17:11:35.677Z,67.92
2022-10-07T17:15:42.374Z,67.71
2022-10-07T17:19:45.874Z,68.26
2022-10-07T17:23:49.174Z,68.75
2022-10-07T17:27:52.620Z,68.70
2022-10-07T17:31:57.265Z,69.00
2022-10-07T17:36:07.809Z,69.00
2022-10-07T17:40:11.897Z,69.27
2022-10-07T17:44:16.243Z,69.74
2022-10-07T17:48:21.099Z,69.61
2022-10-07T17:52:27.513Z,69.68
2022-10-07T17:56:32.803Z,69.44
2022-10-07T18:05:01.941Z,69.41
2022-10-07T18:09:06.996Z,69.44
2022-10-07T18:13:28.777Z,69.68
2022-10-07T18:17:32.132Z,69.77
2022-10-07T18:21:36.701Z,69.90
2022-10-07T18:25:40.438Z,69.71
2022-10-07T18:29:43.904Z,70.10
2022-10-07T18:33:47.036Z,70.38
2022-10-07T18:37:54.251Z,70.34
2022-10-07T18:41:58.506Z,71.21
2022-10-07T18:46:03.615Z,71.38
